Sahand Airport

Airport
ICAO code: 
OITM
IATA Code: 
ACP
Summary
ICAO Region: 
MID
Territory: 
Location: 
Maragheh Sahand, East Azerbaijan Province
Serving: 
Bonab
Elevation: 
4396 ft
Coordinates: 
Aerial View: 
37° 20' 49.321" N, 46° 8' 39.871" E
Metar
Observation
OITM 261800Z 23006KT 6000 NSC 23/05 Q1009
Station
Maragheh / Sahand
Date/Time
2022-06-26 18:00:00
Wind direction
230°
Wind speed
06 kts
Lowest cloud amount
nil significant cloud
Temperature
23°C
Dew point
5°C
Humidity
31%
QNH
1009 hPa
Weather condition
n/a

Airport 7km east of the city of Bonab in Iran.

Climatology

Semi-arid climate (Köppen climate classification BSk).

Runways

Designator Length Width Surface Rops
8/26 2930 30 ASP No/No
Airport map: 
Aerial View: 

SKYbrary Partners:

Safety knowledge contributed by: